sensor_id;sensor_type;location;lat;lon;timestamp;P1;durP1;ratioP1;P2;durP2;ratioP2
36445;SDS011;22472;50.848;-1.216;2023-06-14T00:01:18;6.90;;;3.08;;
36445;SDS011;22472;50.848;-1.216;2023-06-14T00:03:47;7.13;;;3.30;;
36445;SDS011;22472;50.848;-1.216;2023-06-14T00:06:14;6.03;;;2.95;;
36445;SDS011;22472;50.848;-1.216;2023-06-14T00:08:42;3.92;;;2.95;;
36445;SDS011;22472;50.848;-1.216;2023-06-14T00:11:11;7.35;;;3.42;;
36445;SDS011;22472;50.848;-1.216;2023-06-14T00:13:38;6.80;;;3.42;;
36445;SDS011;22472;50.848;-1.216;2023-06-14T00:16:06;4.97;;;3.25;;
36445;SDS011;22472;50.848;-1.216;2023-06-14T00:18:33;5.57;;;3.42;;
36445;SDS011;22472;50.848;-1.216;2023-06-14T00:21:00;5.78;;;3.38;;
36445;SDS011;22472;50.848;-1.216;2023-06-14T00:23:29;5.47;;;3.65;;
36445;SDS011;22472;50.848;-1.216;2023-06-14T00:25:56;7.82;;;3.47;;
36445;SDS011;22472;50.848;-1.216;2023-06-14T00:28:25;6.80;;;3.22;;
36445;SDS011;22472;50.848;-1.216;2023-06-14T00:30:52;5.78;;;2.83;;
36445;SDS011;22472;50.848;-1.216;2023-06-14T00:33:19;9.32;;;3.65;;
36445;SDS011;22472;50.848;-1.216;2023-06-14T00:35:46;5.60;;;3.50;;
36445;SDS011;22472;50.848;-1.216;2023-06-14T00:38:14;6.18;;;3.40;;
36445;SDS011;22472;50.848;-1.216;2023-06-14T00:40:41;5.82;;;3.17;;
36445;SDS011;22472;50.848;-1.216;2023-06-14T00:43:08;6.28;;;3.25;;
36445;SDS011;22472;50.848;-1.216;2023-06-14T00:45:37;7.10;;;3.63;;
36445;SDS011;22472;50.848;-1.216;2023-06-14T00:48:05;6.75;;;3.25;;
36445;SDS011;22472;50.848;-1.216;2023-06-14T00:50:32;5.90;;;3.30;;
36445;SDS011;22472;50.848;-1.216;2023-06-14T00:53:00;4.90;;;3.10;;
36445;SDS011;22472;50.848;-1.216;2023-06-14T00:55:28;6.70;;;3.72;;
36445;SDS011;22472;50.848;-1.216;2023-06-14T00:57:55;6.75;;;3.50;;
36445;SDS011;22472;50.848;-1.216;2023-06-14T01:00:22;5.43;;;3.10;;
36445;SDS011;22472;50.848;-1.216;2023-06-14T01:02:51;5.95;;;3.38;;
36445;SDS011;22472;50.848;-1.216;2023-06-14T01:05:18;5.90;;;3.65;;
36445;SDS011;22472;50.848;-1.216;2023-06-14T01:07:55;5.10;;;3.40;;
36445;SDS011;22472;50.848;-1.216;2023-06-14T01:10:32;8.48;;;3.47;;
36445;SDS011;22472;50.848;-1.216;2023-06-14T01:13:04;5.88;;;3.63;;
36445;SDS011;22472;50.848;-1.216;2023-06-14T01:15:32;5.90;;;3.45;;
36445;SDS011;22472;50.848;-1.216;2023-06-14T01:18:01;7.82;;;3.85;;
36445;SDS011;22472;50.848;-1.216;2023-06-14T01:20:29;9.68;;;3.85;;
36445;SDS011;22472;50.848;-1.216;2023-06-14T01:22:59;5.93;;;3.55;;
36445;SDS011;22472;50.848;-1.216;2023-06-14T01:25:26;9.70;;;3.30;;
36445;SDS011;22472;50.848;-1.216;2023-06-14T01:27:55;7.07;;;3.97;;
36445;SDS011;22472;50.848;-1.216;2023-06-14T01:30:24;6.97;;;3.40;;
36445;SDS011;22472;50.848;-1.216;2023-06-14T01:32:51;6.20;;;3.78;;
36445;SDS011;22472;50.848;-1.216;2023-06-14T01:35:19;9.25;;;3.88;;
36445;SDS011;22472;50.848;-1.216;2023-06-14T01:37:47;6.93;;;3.50;;
36445;SDS011;22472;50.848;-1.216;2023-06-14T01:40:16;5.35;;;3.47;;
36445;SDS011;22472;50.848;-1.216;2023-06-14T01:42:44;8.20;;;3.80;;
36445;SDS011;22472;50.848;-1.216;2023-06-14T01:45:13;5.35;;;3.42;;
36445;SDS011;22472;50.848;-1.216;2023-06-14T01:47:40;7.45;;;3.95;;
36445;SDS011;22472;50.848;-1.216;2023-06-14T01:50:08;6.28;;;3.60;;
36445;SDS011;22472;50.848;-1.216;2023-06-14T01:52:36;5.38;;;3.35;;
36445;SDS011;22472;50.848;-1.216;2023-06-14T01:55:04;4.72;;;3.20;;
36445;SDS011;22472;50.848;-1.216;2023-06-14T01:57:32;6.03;;;3.60;;
36445;SDS011;22472;50.848;-1.216;2023-06-14T02:00:00;6.15;;;3.53;;
36445;SDS011;22472;50.848;-1.216;2023-06-14T02:04:58;5.90;;;2.83;;
36445;SDS011;22472;50.848;-1.216;2023-06-14T02:07:47;5.95;;;3.42;;
36445;SDS011;22472;50.848;-1.216;2023-06-14T02:10:15;10.43;;;3.60;;
36445;SDS011;22472;50.848;-1.216;2023-06-14T02:12:45;4.95;;;2.88;;
36445;SDS011;22472;50.848;-1.216;2023-06-14T02:15:12;8.35;;;3.08;;
36445;SDS011;22472;50.848;-1.216;2023-06-14T02:17:42;7.27;;;3.40;;
36445;SDS011;22472;50.848;-1.216;2023-06-14T02:20:09;6.63;;;3.30;;
36445;SDS011;22472;50.848;-1.216;2023-06-14T02:22:36;8.90;;;3.58;;
36445;SDS011;22472;50.848;-1.216;2023-06-14T02:25:04;6.80;;;3.35;;
36445;SDS011;22472;50.848;-1.216;2023-06-14T02:27:31;5.75;;;3.42;;
36445;SDS011;22472;50.848;-1.216;2023-06-14T02:30:00;7.88;;;3.15;;
36445;SDS011;22472;50.848;-1.216;2023-06-14T02:32:27;3.88;;;2.65;;
36445;SDS011;22472;50.848;-1.216;2023-06-14T02:34:55;4.50;;;2.70;;
36445;SDS011;22472;50.848;-1.216;2023-06-14T02:37:22;6.43;;;2.75;;
36445;SDS011;22472;50.848;-1.216;2023-06-14T02:39:49;4.35;;;2.58;;
36445;SDS011;22472;50.848;-1.216;2023-06-14T02:42:16;5.47;;;2.80;;
36445;SDS011;22472;50.848;-1.216;2023-06-14T02:44:44;6.38;;;2.97;;
36445;SDS011;22472;50.848;-1.216;2023-06-14T02:47:17;6.32;;;2.65;;
36445;SDS011;22472;50.848;-1.216;2023-06-14T02:49:44;5.72;;;2.75;;
36445;SDS011;22472;50.848;-1.216;2023-06-14T02:52:12;5.50;;;2.60;;
36445;SDS011;22472;50.848;-1.216;2023-06-14T02:54:39;5.38;;;2.50;;
36445;SDS011;22472;50.848;-1.216;2023-06-14T02:57:07;5.93;;;2.47;;
36445;SDS011;22472;50.848;-1.216;2023-06-14T02:59:35;6.38;;;2.50;;
36445;SDS011;22472;50.848;-1.216;2023-06-14T03:02:03;8.25;;;2.53;;
36445;SDS011;22472;50.848;-1.216;2023-06-14T03:04:31;4.57;;;2.50;;
36445;SDS011;22472;50.848;-1.216;2023-06-14T03:07:02;4.30;;;2.58;;
36445;SDS011;22472;50.848;-1.216;2023-06-14T03:09:34;5.90;;;2.50;;
36445;SDS011;22472;50.848;-1.216;2023-06-14T03:12:02;5.00;;;2.65;;
36445;SDS011;22472;50.848;-1.216;2023-06-14T03:14:30;5.32;;;2.95;;
36445;SDS011;22472;50.848;-1.216;2023-06-14T03:16:57;6.35;;;2.90;;
36445;SDS011;22472;50.848;-1.216;2023-06-14T03:19:25;4.25;;;2.65;;
36445;SDS011;22472;50.848;-1.216;2023-06-14T03:21:54;5.85;;;3.38;;
36445;SDS011;22472;50.848;-1.216;2023-06-14T03:24:22;4.90;;;3.03;;
36445;SDS011;22472;50.848;-1.216;2023-06-14T03:26:50;6.30;;;2.63;;
36445;SDS011;22472;50.848;-1.216;2023-06-14T03:29:17;5.28;;;2.88;;
36445;SDS011;22472;50.848;-1.216;2023-06-14T03:31:56;5.20;;;2.92;;
36445;SDS011;22472;50.848;-1.216;2023-06-14T03:34:24;6.32;;;2.60;;
36445;SDS011;22472;50.848;-1.216;2023-06-14T03:36:51;4.03;;;2.70;;
36445;SDS011;22472;50.848;-1.216;2023-06-14T03:39:20;4.85;;;2.80;;
36445;SDS011;22472;50.848;-1.216;2023-06-14T03:41:47;3.88;;;2.70;;
36445;SDS011;22472;50.848;-1.216;2023-06-14T03:44:15;4.10;;;2.28;;
36445;SDS011;22472;50.848;-1.216;2023-06-14T03:46:43;5.65;;;2.53;;
36445;SDS011;22472;50.848;-1.216;2023-06-14T03:49:10;4.18;;;2.60;;
36445;SDS011;22472;50.848;-1.216;2023-06-14T03:51:38;4.20;;;2.47;;
36445;SDS011;22472;50.848;-1.216;2023-06-14T03:54:06;4.10;;;2.45;;
36445;SDS011;22472;50.848;-1.216;2023-06-14T03:56:34;6.25;;;2.40;;
36445;SDS011;22472;50.848;-1.216;2023-06-14T03:59:02;3.75;;;2.20;;
36445;SDS011;22472;50.848;-1.216;2023-06-14T04:01:29;4.68;;;2.50;;
36445;SDS011;22472;50.848;-1.216;2023-06-14T04:03:58;5.07;;;2.17;;
36445;SDS011;22472;50.848;-1.216;2023-06-14T04:06:26;3.55;;;2.00;;
36445;SDS011;22472;50.848;-1.216;2023-06-14T04:08:58;4.00;;;2.13;;
36445;SDS011;22472;50.848;-1.216;2023-06-14T04:11:29;5.03;;;1.98;;
36445;SDS011;22472;50.848;-1.216;2023-06-14T04:13:57;5.45;;;2.63;;
36445;SDS011;22472;50.848;-1.216;2023-06-14T04:16:25;3.47;;;2.28;;
36445;SDS011;22472;50.848;-1.216;2023-06-14T04:18:53;5.68;;;2.08;;
36445;SDS011;22472;50.848;-1.216;2023-06-14T04:21:20;4.53;;;2.40;;
36445;SDS011;22472;50.848;-1.216;2023-06-14T04:23:48;4.10;;;2.40;;
36445;SDS011;22472;50.848;-1.216;2023-06-14T04:26:18;3.58;;;2.17;;
36445;SDS011;22472;50.848;-1.216;2023-06-14T04:28:46;4.40;;;2.40;;
36445;SDS011;22472;50.848;-1.216;2023-06-14T04:31:16;3.75;;;1.98;;
36445;SDS011;22472;50.848;-1.216;2023-06-14T04:33:43;6.85;;;2.70;;
36445;SDS011;22472;50.848;-1.216;2023-06-14T04:36:11;4.43;;;2.40;;
36445;SDS011;22472;50.848;-1.216;2023-06-14T04:38:39;3.50;;;2.65;;
36445;SDS011;22472;50.848;-1.216;2023-06-14T04:41:08;5.93;;;2.88;;
36445;SDS011;22472;50.848;-1.216;2023-06-14T04:43:37;4.82;;;2.30;;
36445;SDS011;22472;50.848;-1.216;2023-06-14T04:46:05;5.68;;;2.42;;
36445;SDS011;22472;50.848;-1.216;2023-06-14T04:48:36;5.38;;;2.60;;
36445;SDS011;22472;50.848;-1.216;2023-06-14T04:51:06;4.07;;;2.45;;
36445;SDS011;22472;50.848;-1.216;2023-06-14T04:53:33;5.68;;;2.60;;
36445;SDS011;22472;50.848;-1.216;2023-06-14T04:56:00;7.05;;;2.20;;
36445;SDS011;22472;50.848;-1.216;2023-06-14T04:58:28;3.17;;;2.15;;
36445;SDS011;22472;50.848;-1.216;2023-06-14T05:00:55;6.07;;;2.60;;
36445;SDS011;22472;50.848;-1.216;2023-06-14T05:03:24;3.60;;;2.00;;
36445;SDS011;22472;50.848;-1.216;2023-06-14T05:05:53;7.85;;;2.00;;
36445;SDS011;22472;50.848;-1.216;2023-06-14T05:08:20;4.72;;;2.20;;
36445;SDS011;22472;50.848;-1.216;2023-06-14T05:10:49;3.83;;;2.00;;
36445;SDS011;22472;50.848;-1.216;2023-06-14T05:13:17;5.38;;;2.25;;
36445;SDS011;22472;50.848;-1.216;2023-06-14T05:15:44;5.32;;;2.42;;
36445;SDS011;22472;50.848;-1.216;2023-06-14T05:18:12;6.10;;;2.22;;
36445;SDS011;22472;50.848;-1.216;2023-06-14T05:20:40;3.58;;;2.10;;
36445;SDS011;22472;50.848;-1.216;2023-06-14T05:23:09;4.72;;;2.28;;
36445;SDS011;22472;50.848;-1.216;2023-06-14T05:25:41;5.72;;;2.28;;
36445;SDS011;22472;50.848;-1.216;2023-06-14T05:28:08;6.15;;;2.35;;
36445;SDS011;22472;50.848;-1.216;2023-06-14T05:30:37;4.85;;;2.20;;
36445;SDS011;22472;50.848;-1.216;2023-06-14T05:33:04;5.00;;;2.25;;
36445;SDS011;22472;50.848;-1.216;2023-06-14T05:35:32;6.00;;;2.42;;
36445;SDS011;22472;50.848;-1.216;2023-06-14T05:37:59;5.80;;;2.35;;
36445;SDS011;22472;50.848;-1.216;2023-06-14T05:40:28;5.05;;;2.30;;
36445;SDS011;22472;50.848;-1.216;2023-06-14T05:42:55;4.47;;;2.35;;
36445;SDS011;22472;50.848;-1.216;2023-06-14T05:45:22;7.57;;;2.78;;
36445;SDS011;22472;50.848;-1.216;2023-06-14T05:47:49;4.45;;;2.08;;
36445;SDS011;22472;50.848;-1.216;2023-06-14T05:50:17;6.43;;;2.10;;
36445;SDS011;22472;50.848;-1.216;2023-06-14T05:52:44;4.45;;;1.92;;
36445;SDS011;22472;50.848;-1.216;2023-06-14T05:55:12;5.43;;;2.00;;
36445;SDS011;22472;50.848;-1.216;2023-06-14T05:57:40;7.22;;;2.00;;
36445;SDS011;22472;50.848;-1.216;2023-06-14T06:00:08;5.70;;;2.42;;
36445;SDS011;22472;50.848;-1.216;2023-06-14T06:02:39;6.28;;;2.65;;
36445;SDS011;22472;50.848;-1.216;2023-06-14T06:05:07;7.65;;;2.38;;
36445;SDS011;22472;50.848;-1.216;2023-06-14T06:07:35;5.32;;;2.08;;
36445;SDS011;22472;50.848;-1.216;2023-06-14T06:10:02;5.82;;;2.05;;
36445;SDS011;22472;50.848;-1.216;2023-06-14T06:12:30;5.55;;;2.35;;
36445;SDS011;22472;50.848;-1.216;2023-06-14T06:14:59;7.00;;;2.67;;
36445;SDS011;22472;50.848;-1.216;2023-06-14T06:17:26;5.13;;;2.33;;
36445;SDS011;22472;50.848;-1.216;2023-06-14T06:19:54;5.82;;;1.75;;
36445;SDS011;22472;50.848;-1.216;2023-06-14T06:22:21;6.63;;;2.10;;
36445;SDS011;22472;50.848;-1.216;2023-06-14T06:24:48;9.93;;;2.40;;
36445;SDS011;22472;50.848;-1.216;2023-06-14T06:27:16;7.95;;;2.40;;
36445;SDS011;22472;50.848;-1.216;2023-06-14T06:29:44;5.22;;;2.30;;
36445;SDS011;22472;50.848;-1.216;2023-06-14T06:32:15;6.32;;;2.25;;
36445;SDS011;22472;50.848;-1.216;2023-06-14T06:34:42;7.57;;;2.35;;
36445;SDS011;22472;50.848;-1.216;2023-06-14T06:37:10;5.05;;;2.22;;
36445;SDS011;22472;50.848;-1.216;2023-06-14T06:39:37;7.35;;;1.80;;
36445;SDS011;22472;50.848;-1.216;2023-06-14T06:42:04;6.63;;;2.38;;
36445;SDS011;22472;50.848;-1.216;2023-06-14T06:44:32;5.93;;;2.53;;
36445;SDS011;22472;50.848;-1.216;2023-06-14T06:46:59;6.53;;;2.15;;
36445;SDS011;22472;50.848;-1.216;2023-06-14T06:49:28;6.32;;;2.30;;
36445;SDS011;22472;50.848;-1.216;2023-06-14T06:51:59;5.70;;;2.28;;
36445;SDS011;22472;50.848;-1.216;2023-06-14T06:54:27;6.97;;;2.25;;
36445;SDS011;22472;50.848;-1.216;2023-06-14T06:56:54;5.10;;;1.95;;
36445;SDS011;22472;50.848;-1.216;2023-06-14T06:59:21;8.60;;;2.60;;
36445;SDS011;22472;50.848;-1.216;2023-06-14T07:01:49;6.28;;;2.35;;
36445;SDS011;22472;50.848;-1.216;2023-06-14T07:04:16;5.65;;;2.20;;
36445;SDS011;22472;50.848;-1.216;2023-06-14T07:06:45;7.63;;;2.95;;
36445;SDS011;22472;50.848;-1.216;2023-06-14T07:09:13;6.30;;;2.28;;
36445;SDS011;22472;50.848;-1.216;2023-06-14T07:11:41;7.50;;;2.50;;
36445;SDS011;22472;50.848;-1.216;2023-06-14T07:14:08;9.95;;;2.67;;
36445;SDS011;22472;50.848;-1.216;2023-06-14T07:16:36;5.47;;;2.35;;
36445;SDS011;22472;50.848;-1.216;2023-06-14T07:19:03;6.50;;;2.40;;
36445;SDS011;22472;50.848;-1.216;2023-06-14T07:21:30;5.57;;;2.22;;
36445;SDS011;22472;50.848;-1.216;2023-06-14T07:23:59;6.50;;;2.50;;
36445;SDS011;22472;50.848;-1.216;2023-06-14T07:26:26;7.60;;;2.60;;
36445;SDS011;22472;50.848;-1.216;2023-06-14T07:28:54;6.18;;;2.17;;
36445;SDS011;22472;50.848;-1.216;2023-06-14T07:31:21;7.03;;;2.15;;
36445;SDS011;22472;50.848;-1.216;2023-06-14T07:33:48;6.47;;;1.98;;
36445;SDS011;22472;50.848;-1.216;2023-06-14T07:36:21;9.23;;;2.35;;
36445;SDS011;22472;50.848;-1.216;2023-06-14T07:38:49;5.03;;;2.10;;
36445;SDS011;22472;50.848;-1.216;2023-06-14T07:41:17;6.75;;;2.17;;
36445;SDS011;22472;50.848;-1.216;2023-06-14T07:43:45;6.65;;;2.55;;
36445;SDS011;22472;50.848;-1.216;2023-06-14T07:46:12;7.68;;;2.53;;
36445;SDS011;22472;50.848;-1.216;2023-06-14T07:48:39;4.90;;;2.30;;
36445;SDS011;22472;50.848;-1.216;2023-06-14T07:51:07;8.00;;;2.78;;
36445;SDS011;22472;50.848;-1.216;2023-06-14T07:53:34;7.45;;;2.47;;
36445;SDS011;22472;50.848;-1.216;2023-06-14T07:56:01;7.47;;;2.80;;
36445;SDS011;22472;50.848;-1.216;2023-06-14T07:58:30;10.88;;;2.60;;
36445;SDS011;22472;50.848;-1.216;2023-06-14T08:00:57;7.88;;;2.75;;
36445;SDS011;22472;50.848;-1.216;2023-06-14T08:03:26;9.95;;;2.75;;
36445;SDS011;22472;50.848;-1.216;2023-06-14T08:05:55;5.68;;;2.67;;
36445;SDS011;22472;50.848;-1.216;2023-06-14T08:08:23;8.13;;;2.45;;
36445;SDS011;22472;50.848;-1.216;2023-06-14T08:10:50;10.50;;;2.55;;
36445;SDS011;22472;50.848;-1.216;2023-06-14T08:13:17;7.53;;;2.53;;
36445;SDS011;22472;50.848;-1.216;2023-06-14T08:15:46;7.50;;;2.35;;
36445;SDS011;22472;50.848;-1.216;2023-06-14T08:18:13;6.55;;;2.40;;
36445;SDS011;22472;50.848;-1.216;2023-06-14T08:20:41;6.82;;;2.40;;
36445;SDS011;22472;50.848;-1.216;2023-06-14T08:23:09;5.20;;;2.30;;
36445;SDS011;22472;50.848;-1.216;2023-06-14T08:25:36;7.35;;;2.53;;
36445;SDS011;22472;50.848;-1.216;2023-06-14T08:28:04;6.80;;;2.75;;
36445;SDS011;22472;50.848;-1.216;2023-06-14T08:30:31;7.55;;;2.08;;
36445;SDS011;22472;50.848;-1.216;2023-06-14T08:33:00;6.57;;;2.55;;
36445;SDS011;22472;50.848;-1.216;2023-06-14T08:35:27;5.95;;;2.53;;
36445;SDS011;22472;50.848;-1.216;2023-06-14T08:37:54;8.02;;;2.70;;
36445;SDS011;22472;50.848;-1.216;2023-06-14T08:40:22;5.75;;;2.05;;
36445;SDS011;22472;50.848;-1.216;2023-06-14T08:42:50;7.97;;;2.63;;
36445;SDS011;22472;50.848;-1.216;2023-06-14T08:45:18;4.88;;;2.13;;
36445;SDS011;22472;50.848;-1.216;2023-06-14T08:47:46;4.80;;;2.28;;
36445;SDS011;22472;50.848;-1.216;2023-06-14T08:50:19;5.45;;;2.10;;
36445;SDS011;22472;50.848;-1.216;2023-06-14T08:52:51;6.30;;;2.15;;
36445;SDS011;22472;50.848;-1.216;2023-06-14T08:55:18;5.45;;;2.33;;
36445;SDS011;22472;50.848;-1.216;2023-06-14T08:57:46;7.65;;;2.40;;
36445;SDS011;22472;50.848;-1.216;2023-06-14T09:00:14;3.90;;;2.08;;
36445;SDS011;22472;50.848;-1.216;2023-06-14T09:02:42;8.35;;;3.50;;
36445;SDS011;22472;50.848;-1.216;2023-06-14T09:05:10;5.97;;;3.03;;
36445;SDS011;22472;50.848;-1.216;2023-06-14T09:07:40;7.22;;;2.78;;
36445;SDS011;22472;50.848;-1.216;2023-06-14T09:10:08;6.72;;;2.50;;
36445;SDS011;22472;50.848;-1.216;2023-06-14T09:12:36;6.30;;;2.67;;
36445;SDS011;22472;50.848;-1.216;2023-06-14T09:15:05;7.38;;;2.40;;
36445;SDS011;22472;50.848;-1.216;2023-06-14T09:17:33;9.45;;;3.20;;
36445;SDS011;22472;50.848;-1.216;2023-06-14T09:20:01;6.32;;;2.88;;
36445;SDS011;22472;50.848;-1.216;2023-06-14T09:22:31;7.80;;;3.00;;
36445;SDS011;22472;50.848;-1.216;2023-06-14T09:25:00;6.45;;;2.92;;
36445;SDS011;22472;50.848;-1.216;2023-06-14T09:27:28;6.30;;;3.05;;
36445;SDS011;22472;50.848;-1.216;2023-06-14T09:29:55;6.90;;;2.90;;
36445;SDS011;22472;50.848;-1.216;2023-06-14T09:32:23;6.38;;;2.40;;
36445;SDS011;22472;50.848;-1.216;2023-06-14T09:34:50;8.75;;;3.40;;
36445;SDS011;22472;50.848;-1.216;2023-06-14T09:37:26;8.40;;;3.05;;
36445;SDS011;22472;50.848;-1.216;2023-06-14T09:39:53;8.68;;;2.80;;
36445;SDS011;22472;50.848;-1.216;2023-06-14T09:42:22;7.72;;;3.10;;
36445;SDS011;22472;50.848;-1.216;2023-06-14T09:44:51;4.18;;;2.60;;
36445;SDS011;22472;50.848;-1.216;2023-06-14T09:47:18;6.03;;;2.53;;
36445;SDS011;22472;50.848;-1.216;2023-06-14T09:49:46;3.38;;;2.10;;
36445;SDS011;22472;50.848;-1.216;2023-06-14T09:52:14;6.25;;;2.78;;
36445;SDS011;22472;50.848;-1.216;2023-06-14T09:54:42;6.45;;;2.75;;
36445;SDS011;22472;50.848;-1.216;2023-06-14T09:57:11;4.43;;;2.08;;
36445;SDS011;22472;50.848;-1.216;2023-06-14T09:59:41;6.35;;;3.00;;
36445;SDS011;22472;50.848;-1.216;2023-06-14T10:02:11;5.93;;;3.05;;
36445;SDS011;22472;50.848;-1.216;2023-06-14T10:04:39;9.38;;;3.40;;
36445;SDS011;22472;50.848;-1.216;2023-06-14T10:07:08;6.90;;;2.80;;
36445;SDS011;22472;50.848;-1.216;2023-06-14T10:09:35;5.68;;;2.20;;
36445;SDS011;22472;50.848;-1.216;2023-06-14T10:12:05;7.72;;;2.65;;
36445;SDS011;22472;50.848;-1.216;2023-06-14T10:14:32;7.88;;;3.53;;
36445;SDS011;22472;50.848;-1.216;2023-06-14T10:17:03;7.10;;;3.42;;
36445;SDS011;22472;50.848;-1.216;2023-06-14T10:19:33;7.35;;;2.75;;
36445;SDS011;22472;50.848;-1.216;2023-06-14T10:22:01;6.32;;;2.60;;
36445;SDS011;22472;50.848;-1.216;2023-06-14T10:24:30;4.50;;;2.13;;
36445;SDS011;22472;50.848;-1.216;2023-06-14T10:26:59;7.32;;;2.88;;
36445;SDS011;22472;50.848;-1.216;2023-06-14T10:29:26;8.88;;;3.67;;
36445;SDS011;22472;50.848;-1.216;2023-06-14T10:31:57;8.07;;;3.70;;
36445;SDS011;22472;50.848;-1.216;2023-06-14T10:34:26;7.78;;;3.60;;
36445;SDS011;22472;50.848;-1.216;2023-06-14T10:37:00;9.13;;;3.80;;
36445;SDS011;22472;50.848;-1.216;2023-06-14T10:39:29;8.05;;;3.20;;
36445;SDS011;22472;50.848;-1.216;2023-06-14T10:41:57;8.30;;;3.10;;
36445;SDS011;22472;50.848;-1.216;2023-06-14T10:44:37;6.10;;;2.97;;
36445;SDS011;22472;50.848;-1.216;2023-06-14T10:47:09;6.15;;;3.42;;
36445;SDS011;22472;50.848;-1.216;2023-06-14T10:49:40;4.75;;;2.40;;
36445;SDS011;22472;50.848;-1.216;2023-06-14T10:52:08;7.55;;;2.58;;
36445;SDS011;22472;50.848;-1.216;2023-06-14T10:54:55;6.25;;;2.70;;
36445;SDS011;22472;50.848;-1.216;2023-06-14T10:57:22;6.55;;;2.80;;
36445;SDS011;22472;50.848;-1.216;2023-06-14T10:59:50;4.90;;;2.25;;
36445;SDS011;22472;50.848;-1.216;2023-06-14T11:02:23;6.20;;;2.65;;
36445;SDS011;22472;50.848;-1.216;2023-06-14T11:04:55;6.80;;;2.53;;
36445;SDS011;22472;50.848;-1.216;2023-06-14T11:07:28;6.80;;;2.50;;
36445;SDS011;22472;50.848;-1.216;2023-06-14T11:10:09;4.20;;;2.40;;
36445;SDS011;22472;50.848;-1.216;2023-06-14T11:12:37;5.13;;;3.00;;
36445;SDS011;22472;50.848;-1.216;2023-06-14T11:15:07;7.43;;;2.92;;
36445;SDS011;22472;50.848;-1.216;2023-06-14T11:17:35;9.55;;;2.95;;
36445;SDS011;22472;50.848;-1.216;2023-06-14T11:20:10;7.70;;;2.92;;
36445;SDS011;22472;50.848;-1.216;2023-06-14T11:22:40;6.40;;;2.93;;
36445;SDS011;22472;50.848;-1.216;2023-06-14T11:25:08;7.35;;;2.63;;
36445;SDS011;22472;50.848;-1.216;2023-06-14T11:27:36;4.00;;;2.00;;
36445;SDS011;22472;50.848;-1.216;2023-06-14T11:30:03;7.10;;;2.75;;
36445;SDS011;22472;50.848;-1.216;2023-06-14T11:32:31;8.45;;;3.30;;
36445;SDS011;22472;50.848;-1.216;2023-06-14T11:34:58;6.32;;;2.88;;
36445;SDS011;22472;50.848;-1.216;2023-06-14T11:37:27;4.75;;;2.70;;
36445;SDS011;22472;50.848;-1.216;2023-06-14T11:39:55;6.00;;;2.65;;
36445;SDS011;22472;50.848;-1.216;2023-06-14T11:42:24;9.17;;;2.87;;
36445;SDS011;22472;50.848;-1.216;2023-06-14T11:44:53;9.93;;;3.40;;
36445;SDS011;22472;50.848;-1.216;2023-06-14T11:47:21;7.68;;;3.20;;
36445;SDS011;22472;50.848;-1.216;2023-06-14T11:49:48;7.07;;;2.58;;
36445;SDS011;22472;50.848;-1.216;2023-06-14T11:52:16;8.05;;;3.60;;
36445;SDS011;22472;50.848;-1.216;2023-06-14T11:54:45;4.88;;;2.40;;
36445;SDS011;22472;50.848;-1.216;2023-06-14T11:57:14;5.95;;;2.90;;
36445;SDS011;22472;50.848;-1.216;2023-06-14T11:59:41;7.68;;;2.97;;
36445;SDS011;22472;50.848;-1.216;2023-06-14T12:02:13;5.22;;;2.63;;
36445;SDS011;22472;50.848;-1.216;2023-06-14T12:04:40;8.02;;;3.25;;
36445;SDS011;22472;50.848;-1.216;2023-06-14T12:07:08;7.13;;;2.80;;
36445;SDS011;22472;50.848;-1.216;2023-06-14T12:09:37;11.25;;;3.33;;
36445;SDS011;22472;50.848;-1.216;2023-06-14T12:12:06;8.48;;;3.03;;
36445;SDS011;22472;50.848;-1.216;2023-06-14T12:14:34;8.23;;;3.15;;
36445;SDS011;22472;50.848;-1.216;2023-06-14T12:17:04;6.90;;;3.00;;
36445;SDS011;22472;50.848;-1.216;2023-06-14T12:19:32;5.50;;;3.00;;
36445;SDS011;22472;50.848;-1.216;2023-06-14T12:22:00;5.07;;;3.08;;
36445;SDS011;22472;50.848;-1.216;2023-06-14T12:24:29;5.57;;;2.63;;
36445;SDS011;22472;50.848;-1.216;2023-06-14T12:26:57;7.03;;;3.15;;
36445;SDS011;22472;50.848;-1.216;2023-06-14T12:29:26;5.07;;;2.57;;
36445;SDS011;22472;50.848;-1.216;2023-06-14T12:31:54;5.78;;;3.05;;
36445;SDS011;22472;50.848;-1.216;2023-06-14T12:34:22;5.63;;;2.90;;
36445;SDS011;22472;50.848;-1.216;2023-06-14T12:36:49;5.22;;;2.60;;
36445;SDS011;22472;50.848;-1.216;2023-06-14T12:39:18;4.05;;;2.65;;
36445;SDS011;22472;50.848;-1.216;2023-06-14T12:41:46;7.30;;;2.63;;
36445;SDS011;22472;50.848;-1.216;2023-06-14T12:44:14;5.95;;;3.00;;
36445;SDS011;22472;50.848;-1.216;2023-06-14T12:46:43;5.85;;;2.58;;
36445;SDS011;22472;50.848;-1.216;2023-06-14T12:49:10;3.83;;;2.53;;
36445;SDS011;22472;50.848;-1.216;2023-06-14T12:51:38;6.55;;;2.90;;
36445;SDS011;22472;50.848;-1.216;2023-06-14T12:54:05;7.25;;;3.10;;
36445;SDS011;22472;50.848;-1.216;2023-06-14T12:56:33;6.60;;;3.05;;
36445;SDS011;22472;50.848;-1.216;2023-06-14T12:59:00;8.15;;;2.80;;
36445;SDS011;22472;50.848;-1.216;2023-06-14T13:01:27;5.50;;;3.05;;
36445;SDS011;22472;50.848;-1.216;2023-06-14T13:03:56;7.97;;;2.80;;
36445;SDS011;22472;50.848;-1.216;2023-06-14T13:06:23;4.15;;;2.58;;
36445;SDS011;22472;50.848;-1.216;2023-06-14T13:08:50;6.25;;;3.10;;
36445;SDS011;22472;50.848;-1.216;2023-06-14T13:11:20;5.97;;;2.75;;
36445;SDS011;22472;50.848;-1.216;2023-06-14T13:13:47;4.25;;;2.45;;
36445;SDS011;22472;50.848;-1.216;2023-06-14T13:16:14;3.58;;;2.53;;
36445;SDS011;22472;50.848;-1.216;2023-06-14T13:18:41;6.95;;;2.63;;
36445;SDS011;22472;50.848;-1.216;2023-06-14T13:21:10;8.18;;;2.70;;
36445;SDS011;22472;50.848;-1.216;2023-06-14T13:23:37;3.00;;;2.33;;
36445;SDS011;22472;50.848;-1.216;2023-06-14T13:26:04;7.07;;;3.03;;
36445;SDS011;22472;50.848;-1.216;2023-06-14T13:28:32;4.63;;;2.47;;
36445;SDS011;22472;50.848;-1.216;2023-06-14T13:31:00;4.70;;;2.33;;
36445;SDS011;22472;50.848;-1.216;2023-06-14T13:33:28;5.93;;;2.65;;
36445;SDS011;22472;50.848;-1.216;2023-06-14T13:35:55;7.05;;;2.70;;
36445;SDS011;22472;50.848;-1.216;2023-06-14T13:38:23;3.67;;;2.42;;
36445;SDS011;22472;50.848;-1.216;2023-06-14T13:40:50;5.13;;;2.30;;
36445;SDS011;22472;50.848;-1.216;2023-06-14T13:43:18;6.10;;;2.90;;
36445;SDS011;22472;50.848;-1.216;2023-06-14T13:45:45;4.40;;;2.58;;
36445;SDS011;22472;50.848;-1.216;2023-06-14T13:48:12;5.85;;;2.60;;
36445;SDS011;22472;50.848;-1.216;2023-06-14T13:50:39;9.57;;;2.83;;
36445;SDS011;22472;50.848;-1.216;2023-06-14T13:53:07;5.88;;;2.92;;
36445;SDS011;22472;50.848;-1.216;2023-06-14T13:55:36;3.80;;;2.28;;
36445;SDS011;22472;50.848;-1.216;2023-06-14T13:58:03;7.97;;;2.90;;
36445;SDS011;22472;50.848;-1.216;2023-06-14T14:00:30;8.65;;;2.55;;
36445;SDS011;22472;50.848;-1.216;2023-06-14T14:02:57;5.53;;;2.70;;
36445;SDS011;22472;50.848;-1.216;2023-06-14T14:05:25;4.47;;;2.45;;
36445;SDS011;22472;50.848;-1.216;2023-06-14T14:07:54;6.22;;;2.65;;
36445;SDS011;22472;50.848;-1.216;2023-06-14T14:10:23;5.32;;;2.50;;
36445;SDS011;22472;50.848;-1.216;2023-06-14T14:12:52;5.32;;;2.75;;
36445;SDS011;22472;50.848;-1.216;2023-06-14T14:15:19;4.22;;;2.50;;
36445;SDS011;22472;50.848;-1.216;2023-06-14T14:17:47;4.75;;;2.80;;
36445;SDS011;22472;50.848;-1.216;2023-06-14T14:20:15;8.45;;;2.72;;
36445;SDS011;22472;50.848;-1.216;2023-06-14T14:22:42;4.38;;;2.45;;
36445;SDS011;22472;50.848;-1.216;2023-06-14T14:25:09;4.45;;;2.60;;
36445;SDS011;22472;50.848;-1.216;2023-06-14T14:27:37;5.28;;;2.75;;
36445;SDS011;22472;50.848;-1.216;2023-06-14T14:30:06;4.45;;;2.38;;
36445;SDS011;22472;50.848;-1.216;2023-06-14T14:32:34;4.15;;;2.30;;
36445;SDS011;22472;50.848;-1.216;2023-06-14T14:35:01;6.25;;;2.75;;
36445;SDS011;22472;50.848;-1.216;2023-06-14T14:37:28;6.85;;;2.47;;
36445;SDS011;22472;50.848;-1.216;2023-06-14T14:39:55;5.07;;;2.42;;
36445;SDS011;22472;50.848;-1.216;2023-06-14T14:42:22;4.45;;;2.83;;